sensor_id;sensor_type;location;lat;lon;timestamp;P1;durP1;ratioP1;P2;durP2;ratioP2
26048;SDS011;13822;51.568;5.086;2022-07-29T05:33:05;5.47;;;2.25;;
26048;SDS011;13822;51.568;5.086;2022-07-29T05:38:07;4.35;;;1.92;;
26048;SDS011;13822;51.568;5.086;2022-07-29T05:43:20;7.95;;;2.80;;
26048;SDS011;13822;51.568;5.086;2022-07-29T05:48:22;7.22;;;3.08;;
26048;SDS011;13822;51.568;5.086;2022-07-29T05:53:44;9.35;;;2.78;;
26048;SDS011;13822;51.568;5.086;2022-07-29T06:05:03;6.35;;;3.17;;
26048;SDS011;13822;51.568;5.086;2022-07-29T06:10:12;7.18;;;2.95;;
26048;SDS011;13822;51.568;5.086;2022-07-29T06:15:20;6.85;;;3.47;;
26048;SDS011;13822;51.568;5.086;2022-07-29T06:26:29;5.95;;;3.38;;
26048;SDS011;13822;51.568;5.086;2022-07-29T06:37:07;4.53;;;2.95;;
26048;SDS011;13822;51.568;5.086;2022-07-29T06:42:16;5.90;;;3.33;;
26048;SDS011;13822;51.568;5.086;2022-07-29T06:47:18;6.88;;;3.55;;
26048;SDS011;13822;51.568;5.086;2022-07-29T06:52:20;5.10;;;3.08;;
26048;SDS011;13822;51.568;5.086;2022-07-29T07:02:24;6.18;;;2.33;;
26048;SDS011;13822;51.568;5.086;2022-07-29T07:07:28;5.53;;;3.25;;
26048;SDS011;13822;51.568;5.086;2022-07-29T07:12:30;6.80;;;3.13;;
26048;SDS011;13822;51.568;5.086;2022-07-29T07:22:35;5.63;;;3.15;;
26048;SDS011;13822;51.568;5.086;2022-07-29T07:27:41;8.25;;;3.60;;
26048;SDS011;13822;51.568;5.086;2022-07-29T07:32:46;5.95;;;3.20;;
26048;SDS011;13822;51.568;5.086;2022-07-29T07:37:55;6.25;;;3.15;;
26048;SDS011;13822;51.568;5.086;2022-07-29T07:42:57;7.57;;;2.97;;
26048;SDS011;13822;51.568;5.086;2022-07-29T07:47:59;8.77;;;3.75;;
26048;SDS011;13822;51.568;5.086;2022-07-29T07:53:01;6.85;;;3.42;;
26048;SDS011;13822;51.568;5.086;2022-07-29T07:58:03;5.40;;;2.97;;
26048;SDS011;13822;51.568;5.086;2022-07-29T08:03:05;6.32;;;3.22;;
26048;SDS011;13822;51.568;5.086;2022-07-29T08:08:17;6.30;;;3.10;;
26048;SDS011;13822;51.568;5.086;2022-07-29T08:18:23;7.25;;;3.00;;
26048;SDS011;13822;51.568;5.086;2022-07-29T08:23:26;4.65;;;2.65;;
26048;SDS011;13822;51.568;5.086;2022-07-29T08:28:48;5.70;;;2.80;;
26048;SDS011;13822;51.568;5.086;2022-07-29T08:33:51;4.90;;;2.53;;
26048;SDS011;13822;51.568;5.086;2022-07-29T08:38:53;6.75;;;2.85;;
26048;SDS011;13822;51.568;5.086;2022-07-29T08:43:56;5.10;;;2.50;;
26048;SDS011;13822;51.568;5.086;2022-07-29T08:48:58;4.95;;;2.72;;
26048;SDS011;13822;51.568;5.086;2022-07-29T08:54:00;5.75;;;2.42;;
26048;SDS011;13822;51.568;5.086;2022-07-29T08:59:04;4.57;;;2.10;;
26048;SDS011;13822;51.568;5.086;2022-07-29T09:04:09;4.45;;;2.05;;
26048;SDS011;13822;51.568;5.086;2022-07-29T09:09:13;4.65;;;2.30;;
26048;SDS011;13822;51.568;5.086;2022-07-29T09:14:15;5.75;;;2.08;;
26048;SDS011;13822;51.568;5.086;2022-07-29T09:19:21;4.40;;;2.53;;
26048;SDS011;13822;51.568;5.086;2022-07-29T09:24:45;7.15;;;2.28;;
26048;SDS011;13822;51.568;5.086;2022-07-29T09:29:55;4.43;;;2.25;;
26048;SDS011;13822;51.568;5.086;2022-07-29T09:35:18;8.13;;;2.35;;
26048;SDS011;13822;51.568;5.086;2022-07-29T09:40:24;5.88;;;2.17;;
26048;SDS011;13822;51.568;5.086;2022-07-29T09:45:32;6.15;;;2.45;;
26048;SDS011;13822;51.568;5.086;2022-07-29T09:50:39;4.53;;;2.33;;
26048;SDS011;13822;51.568;5.086;2022-07-29T09:55:48;8.90;;;2.35;;
26048;SDS011;13822;51.568;5.086;2022-07-29T10:00:52;4.10;;;1.90;;
26048;SDS011;13822;51.568;5.086;2022-07-29T10:11:10;5.65;;;2.30;;
26048;SDS011;13822;51.568;5.086;2022-07-29T10:16:17;6.10;;;2.10;;
26048;SDS011;13822;51.568;5.086;2022-07-29T10:26:36;5.60;;;2.35;;
26048;SDS011;13822;51.568;5.086;2022-07-29T10:32:06;5.93;;;2.00;;
26048;SDS011;13822;51.568;5.086;2022-07-29T10:37:33;4.82;;;2.35;;
26048;SDS011;13822;51.568;5.086;2022-07-29T10:42:47;4.35;;;2.20;;
26048;SDS011;13822;51.568;5.086;2022-07-29T10:48:02;4.45;;;2.00;;
26048;SDS011;13822;51.568;5.086;2022-07-29T10:53:08;3.10;;;2.10;;
26048;SDS011;13822;51.568;5.086;2022-07-29T11:03:43;5.03;;;1.95;;
26048;SDS011;13822;51.568;5.086;2022-07-29T11:09:14;3.60;;;1.98;;
26048;SDS011;13822;51.568;5.086;2022-07-29T11:25:33;4.05;;;1.92;;
26048;SDS011;13822;51.568;5.086;2022-07-29T11:30:55;5.75;;;1.58;;
26048;SDS011;13822;51.568;5.086;2022-07-29T11:36:10;3.20;;;1.60;;
26048;SDS011;13822;51.568;5.086;2022-07-29T11:51:51;4.32;;;1.70;;
26048;SDS011;13822;51.568;5.086;2022-07-29T11:56:57;4.10;;;1.60;;
26048;SDS011;13822;51.568;5.086;2022-07-29T12:01:59;4.43;;;1.38;;
26048;SDS011;13822;51.568;5.086;2022-07-29T12:07:28;5.05;;;1.58;;
26048;SDS011;13822;51.568;5.086;2022-07-29T12:12:35;5.90;;;1.38;;
26048;SDS011;13822;51.568;5.086;2022-07-29T12:17:38;3.33;;;1.50;;
26048;SDS011;13822;51.568;5.086;2022-07-29T12:22:40;4.82;;;1.65;;
26048;SDS011;13822;51.568;5.086;2022-07-29T12:27:46;3.25;;;1.35;;
26048;SDS011;13822;51.568;5.086;2022-07-29T12:32:48;2.95;;;1.55;;
26048;SDS011;13822;51.568;5.086;2022-07-29T12:37:50;2.85;;;1.20;;
26048;SDS011;13822;51.568;5.086;2022-07-29T12:43:09;3.78;;;1.38;;
26048;SDS011;13822;51.568;5.086;2022-07-29T12:48:12;4.95;;;1.45;;
26048;SDS011;13822;51.568;5.086;2022-07-29T12:53:15;3.05;;;1.02;;
26048;SDS011;13822;51.568;5.086;2022-07-29T12:58:34;3.38;;;1.60;;
26048;SDS011;13822;51.568;5.086;2022-07-29T13:14:05;4.90;;;1.60;;
26048;SDS011;13822;51.568;5.086;2022-07-29T13:19:10;5.60;;;1.90;;
26048;SDS011;13822;51.568;5.086;2022-07-29T13:24:13;7.57;;;1.65;;
26048;SDS011;13822;51.568;5.086;2022-07-29T13:29:20;3.15;;;1.67;;
26048;SDS011;13822;51.568;5.086;2022-07-29T13:34:23;5.20;;;1.92;;
26048;SDS011;13822;51.568;5.086;2022-07-29T13:39:25;6.35;;;1.95;;
26048;SDS011;13822;51.568;5.086;2022-07-29T13:44:27;5.82;;;2.50;;
26048;SDS011;13822;51.568;5.086;2022-07-29T13:49:29;3.85;;;1.75;;
26048;SDS011;13822;51.568;5.086;2022-07-29T13:54:31;5.68;;;1.65;;
26048;SDS011;13822;51.568;5.086;2022-07-29T13:59:33;5.57;;;1.90;;
26048;SDS011;13822;51.568;5.086;2022-07-29T14:04:35;4.18;;;1.63;;
26048;SDS011;13822;51.568;5.086;2022-07-29T14:09:39;2.25;;;1.27;;
26048;SDS011;13822;51.568;5.086;2022-07-29T14:14:42;3.45;;;1.65;;
26048;SDS011;13822;51.568;5.086;2022-07-29T14:19:47;2.75;;;1.60;;
26048;SDS011;13822;51.568;5.086;2022-07-29T14:24:49;3.75;;;1.40;;
26048;SDS011;13822;51.568;5.086;2022-07-29T14:29:51;3.97;;;2.00;;
26048;SDS011;13822;51.568;5.086;2022-07-29T14:34:54;4.45;;;1.98;;
26048;SDS011;13822;51.568;5.086;2022-07-29T14:39:56;6.18;;;1.85;;
26048;SDS011;13822;51.568;5.086;2022-07-29T14:45:00;5.10;;;1.88;;
26048;SDS011;13822;51.568;5.086;2022-07-29T14:50:02;4.30;;;1.73;;
26048;SDS011;13822;51.568;5.086;2022-07-29T14:55:06;4.78;;;1.90;;
26048;SDS011;13822;51.568;5.086;2022-07-29T15:00:20;3.88;;;1.95;;
26048;SDS011;13822;51.568;5.086;2022-07-29T15:05:22;4.13;;;1.83;;
26048;SDS011;13822;51.568;5.086;2022-07-29T15:10:24;6.25;;;2.38;;
26048;SDS011;13822;51.568;5.086;2022-07-29T15:15:28;4.90;;;2.05;;
26048;SDS011;13822;51.568;5.086;2022-07-29T15:20:30;4.13;;;1.77;;
26048;SDS011;13822;51.568;5.086;2022-07-29T15:25:32;4.78;;;2.67;;
26048;SDS011;13822;51.568;5.086;2022-07-29T15:30:37;4.68;;;2.30;;
26048;SDS011;13822;51.568;5.086;2022-07-29T15:35:42;6.57;;;2.53;;
26048;SDS011;13822;51.568;5.086;2022-07-29T15:40:44;5.38;;;2.80;;
26048;SDS011;13822;51.568;5.086;2022-07-29T15:45:47;4.68;;;2.90;;
26048;SDS011;13822;51.568;5.086;2022-07-29T15:51:07;5.05;;;2.58;;
26048;SDS011;13822;51.568;5.086;2022-07-29T15:56:09;4.70;;;2.72;;
26048;SDS011;13822;51.568;5.086;2022-07-29T16:01:11;4.88;;;2.17;;
26048;SDS011;13822;51.568;5.086;2022-07-29T16:06:13;4.38;;;2.53;;
26048;SDS011;13822;51.568;5.086;2022-07-29T16:11:16;5.55;;;2.55;;
26048;SDS011;13822;51.568;5.086;2022-07-29T16:16:18;5.88;;;2.90;;
26048;SDS011;13822;51.568;5.086;2022-07-29T16:21:20;4.43;;;2.38;;
26048;SDS011;13822;51.568;5.086;2022-07-29T16:26:23;4.07;;;2.28;;
26048;SDS011;13822;51.568;5.086;2022-07-29T16:31:25;5.13;;;2.25;;
26048;SDS011;13822;51.568;5.086;2022-07-29T16:36:28;5.70;;;2.75;;
26048;SDS011;13822;51.568;5.086;2022-07-29T16:41:30;5.05;;;2.70;;
26048;SDS011;13822;51.568;5.086;2022-07-29T16:46:33;4.90;;;2.40;;
26048;SDS011;13822;51.568;5.086;2022-07-29T16:51:41;4.10;;;2.45;;
26048;SDS011;13822;51.568;5.086;2022-07-29T16:56:42;7.45;;;3.00;;
26048;SDS011;13822;51.568;5.086;2022-07-29T17:01:44;3.85;;;2.45;;
26048;SDS011;13822;51.568;5.086;2022-07-29T17:06:47;7.32;;;2.70;;
26048;SDS011;13822;51.568;5.086;2022-07-29T17:11:50;5.90;;;2.72;;
26048;SDS011;13822;51.568;5.086;2022-07-29T17:16:57;3.45;;;2.30;;
26048;SDS011;13822;51.568;5.086;2022-07-29T17:22:03;5.45;;;2.25;;
26048;SDS011;13822;51.568;5.086;2022-07-29T17:27:18;6.15;;;2.50;;
26048;SDS011;13822;51.568;5.086;2022-07-29T17:32:21;8.88;;;2.72;;
26048;SDS011;13822;51.568;5.086;2022-07-29T17:37:23;4.95;;;2.10;;
26048;SDS011;13822;51.568;5.086;2022-07-29T17:42:25;5.03;;;2.60;;
26048;SDS011;13822;51.568;5.086;2022-07-29T17:47:27;5.15;;;1.90;;
26048;SDS011;13822;51.568;5.086;2022-07-29T17:52:29;5.40;;;2.30;;
26048;SDS011;13822;51.568;5.086;2022-07-29T17:57:31;4.15;;;2.20;;
26048;SDS011;13822;51.568;5.086;2022-07-29T18:02:34;7.03;;;2.50;;
26048;SDS011;13822;51.568;5.086;2022-07-29T18:07:39;5.47;;;2.10;;
26048;SDS011;13822;51.568;5.086;2022-07-29T18:17:43;3.88;;;1.95;;
26048;SDS011;13822;51.568;5.086;2022-07-29T18:22:58;5.35;;;2.10;;
26048;SDS011;13822;51.568;5.086;2022-07-29T18:28:02;4.13;;;2.15;;
26048;SDS011;13822;51.568;5.086;2022-07-29T18:33:05;3.85;;;1.80;;
26048;SDS011;13822;51.568;5.086;2022-07-29T18:38:22;5.22;;;2.10;;
26048;SDS011;13822;51.568;5.086;2022-07-29T18:43:24;3.78;;;1.70;;
26048;SDS011;13822;51.568;5.086;2022-07-29T18:48:26;3.97;;;1.63;;
26048;SDS011;13822;51.568;5.086;2022-07-29T18:53:28;4.38;;;1.85;;
26048;SDS011;13822;51.568;5.086;2022-07-29T18:58:36;4.32;;;2.20;;
26048;SDS011;13822;51.568;5.086;2022-07-29T19:03:39;3.85;;;1.70;;
26048;SDS011;13822;51.568;5.086;2022-07-29T19:13:43;5.35;;;2.15;;
26048;SDS011;13822;51.568;5.086;2022-07-29T19:18:45;4.82;;;2.25;;
26048;SDS011;13822;51.568;5.086;2022-07-29T19:23:50;6.47;;;2.30;;
26048;SDS011;13822;51.568;5.086;2022-07-29T19:29:07;5.10;;;2.05;;
26048;SDS011;13822;51.568;5.086;2022-07-29T19:39:11;3.57;;;2.00;;
